createdAt,value
2022-09-06T00:02:11.382Z,9.70
2022-09-06T00:04:57.399Z,7.65
2022-09-06T00:07:43.371Z,6.75
2022-09-06T00:10:30.793Z,12.23
2022-09-06T00:13:16.552Z,6.07
2022-09-06T00:16:14.492Z,9.13
2022-09-06T00:19:00.706Z,8.85
2022-09-06T00:21:46.746Z,9.95
2022-09-06T00:24:32.805Z,7.85
2022-09-06T00:27:18.926Z,8.27
2022-09-06T00:30:05.525Z,12.07
2022-09-06T00:32:51.712Z,5.60
2022-09-06T00:35:36.929Z,10.73
2022-09-06T00:38:23.103Z,8.20
2022-09-06T00:41:11.058Z,4.15
2022-09-06T00:43:56.764Z,9.63
2022-09-06T00:46:45.244Z,13.95
2022-09-06T00:49:46.452Z,10.27
2022-09-06T00:52:33.534Z,10.57
2022-09-06T00:55:20.506Z,7.85
2022-09-06T00:58:06.345Z,10.38
2022-09-06T01:00:52.243Z,7.80
2022-09-06T01:03:38.926Z,6.45
2022-09-06T01:06:33.879Z,10.57
2022-09-06T01:09:24.797Z,8.68
2022-09-06T01:12:25.921Z,10.45
2022-09-06T01:15:23.696Z,6.97
2022-09-06T01:18:26.934Z,6.65
2022-09-06T01:21:34.610Z,10.40
2022-09-06T01:24:45.302Z,9.25
2022-09-06T01:27:37.134Z,10.73
2022-09-06T01:30:24.016Z,5.90
2022-09-06T01:33:16.857Z,11.60
2022-09-06T01:36:08.023Z,10.48
2022-09-06T01:38:54.157Z,8.48
2022-09-06T01:41:40.247Z,6.38
2022-09-06T01:44:28.874Z,8.80
2022-09-06T01:47:22.049Z,13.60
2022-09-06T01:50:29.461Z,8.40
2022-09-06T01:53:53.018Z,6.68
2022-09-06T01:56:59.298Z,10.40
2022-09-06T02:00:12.361Z,8.50
2022-09-06T02:03:20.106Z,7.60
2022-09-06T02:06:20.586Z,11.68
2022-09-06T02:09:15.498Z,6.70
2022-09-06T02:12:04.323Z,13.98
2022-09-06T02:15:10.503Z,14.93
2022-09-06T02:18:03.414Z,7.13
2022-09-06T02:20:56.919Z,9.53
2022-09-06T02:23:44.314Z,9.15
2022-09-06T02:26:35.623Z,6.35
2022-09-06T02:29:21.473Z,7.55
2022-09-06T02:32:25.942Z,8.73
2022-09-06T02:35:16.854Z,10.75
2022-09-06T02:38:02.659Z,10.13
2022-09-06T02:40:50.331Z,4.28
2022-09-06T02:43:36.265Z,5.35
2022-09-06T02:46:23.788Z,8.15
2022-09-06T02:49:09.382Z,13.35
2022-09-06T02:51:55.504Z,11.82
2022-09-06T02:54:41.436Z,9.18
2022-09-06T02:57:27.380Z,10.55
2022-09-06T03:00:13.952Z,9.68
2022-09-06T03:03:00.161Z,7.55
2022-09-06T03:05:51.533Z,5.22
2022-09-06T03:08:38.210Z,13.18
2022-09-06T03:11:24.464Z,8.73
2022-09-06T03:14:10.559Z,9.52
2022-09-06T03:16:56.153Z,5.68
2022-09-06T03:19:41.941Z,9.45
2022-09-06T03:22:28.042Z,7.60
2022-09-06T03:25:13.476Z,5.22
2022-09-06T03:27:58.780Z,8.02
2022-09-06T03:30:49.089Z,10.98
2022-09-06T03:33:35.233Z,6.00
2022-09-06T03:36:22.396Z,6.40
2022-09-06T03:39:08.467Z,12.50
2022-09-06T03:41:54.620Z,11.70
2022-09-06T03:44:39.925Z,12.52
2022-09-06T03:47:25.900Z,10.40
2022-09-06T03:50:11.791Z,7.35
2022-09-06T03:52:57.651Z,6.32
2022-09-06T03:55:48.338Z,5.90
2022-09-06T03:58:34.137Z,5.28
2022-09-06T04:01:20.357Z,13.05
2022-09-06T04:04:06.240Z,4.40
2022-09-06T04:06:52.166Z,8.32
2022-09-06T04:09:37.957Z,8.20
2022-09-06T04:12:23.897Z,11.13
2022-09-06T04:15:09.868Z,6.72
2022-09-06T04:17:55.941Z,6.57
2022-09-06T04:20:42.569Z,8.45
2022-09-06T04:23:29.184Z,9.88
2022-09-06T04:26:15.049Z,11.60
2022-09-06T04:29:00.840Z,11.98
2022-09-06T04:31:46.439Z,6.53
2022-09-06T04:34:32.416Z,6.47
2022-09-06T04:37:20.092Z,11.73
2022-09-06T04:40:06.792Z,10.63
2022-09-06T04:42:52.637Z,11.65
2022-09-06T04:45:38.525Z,11.63
2022-09-06T04:48:24.544Z,7.85
2022-09-06T04:51:10.057Z,11.82
2022-09-06T04:53:55.950Z,14.55
2022-09-06T04:56:41.823Z,12.60
2022-09-06T04:59:27.803Z,8.73
2022-09-06T05:02:13.399Z,6.10
2022-09-06T05:04:59.572Z,8.15
2022-09-06T05:07:45.262Z,6.53
2022-09-06T05:10:31.102Z,12.40
2022-09-06T05:13:17.277Z,6.68
2022-09-06T05:16:08.534Z,7.93
2022-09-06T05:18:54.060Z,6.35
2022-09-06T05:21:39.638Z,13.93
2022-09-06T05:24:25.520Z,12.05
2022-09-06T05:27:12.862Z,11.65
2022-09-06T05:29:58.265Z,5.88
2022-09-06T05:32:43.774Z,8.60
2022-09-06T05:35:29.781Z,11.18
2022-09-06T05:38:15.762Z,7.07
2022-09-06T05:41:01.469Z,9.27
2022-09-06T05:43:49.424Z,8.82
2022-09-06T05:46:42.672Z,9.82
2022-09-06T05:49:32.725Z,7.60
2022-09-06T05:52:19.863Z,13.65
2022-09-06T05:55:06.575Z,10.23
2022-09-06T05:57:53.468Z,6.40
2022-09-06T06:00:39.478Z,8.60
2022-09-06T06:03:25.345Z,8.68
2022-09-06T06:06:11.097Z,5.88
2022-09-06T06:08:57.224Z,10.35
2022-09-06T06:11:43.640Z,14.05
2022-09-06T06:14:29.694Z,10.55
2022-09-06T06:17:16.376Z,7.15
2022-09-06T06:20:03.032Z,11.20
2022-09-06T06:22:48.588Z,8.00
2022-09-06T06:25:34.420Z,9.27
2022-09-06T06:28:21.066Z,11.02
2022-09-06T06:31:09.634Z,10.38
2022-09-06T06:33:54.981Z,11.13
2022-09-06T06:36:41.006Z,16.23
2022-09-06T06:39:27.085Z,12.32
2022-09-06T06:42:13.037Z,14.23
2022-09-06T06:45:10.525Z,16.17
2022-09-06T06:47:56.317Z,9.00
2022-09-06T06:50:42.535Z,10.00
2022-09-06T06:53:28.503Z,20.50
2022-09-06T06:56:28.424Z,13.35
2022-09-06T06:59:14.522Z,9.32
2022-09-06T07:02:00.882Z,14.13
2022-09-06T07:04:46.517Z,13.27
2022-09-06T07:07:33.582Z,9.80
2022-09-06T07:10:36.527Z,13.02
2022-09-06T07:13:22.408Z,14.27
2022-09-06T07:16:21.946Z,13.88
2022-09-06T07:19:09.302Z,11.73
2022-09-06T07:22:14.532Z,8.02
2022-09-06T07:25:00.019Z,12.77
2022-09-06T07:30:33.183Z,8.68
2022-09-06T07:33:19.082Z,14.25
2022-09-06T07:36:07.456Z,13.75
2022-09-06T07:38:54.439Z,15.93
2022-09-06T07:41:40.241Z,15.85
2022-09-06T07:44:26.581Z,16.77
2022-09-06T07:53:30.900Z,12.85
2022-09-06T07:56:17.975Z,14.10
2022-09-06T07:59:04.041Z,5.75
2022-09-06T08:01:50.516Z,10.43
2022-09-06T08:04:36.103Z,9.38
2022-09-06T08:10:22.761Z,11.85
2022-09-06T08:13:08.674Z,18.92
2022-09-06T08:16:00.411Z,15.55
2022-09-06T08:18:49.507Z,12.15
2022-09-06T08:21:35.497Z,12.38
2022-09-06T08:24:21.710Z,10.18
2022-09-06T08:27:11.289Z,7.47
2022-09-06T08:29:57.053Z,9.48
2022-09-06T08:32:43.057Z,10.65
2022-09-06T08:35:28.956Z,14.85
2022-09-06T08:38:14.801Z,10.02
2022-09-06T08:41:12.773Z,20.65
2022-09-06T08:47:15.240Z,13.52
2022-09-06T08:50:11.311Z,10.57
2022-09-06T08:53:18.091Z,14.60
2022-09-06T08:56:23.345Z,11.90
2022-09-06T08:59:17.639Z,10.13
2022-09-06T09:02:20.081Z,16.40
2022-09-06T09:05:13.088Z,12.68
2022-09-06T09:08:25.393Z,15.80
2022-09-06T09:11:25.473Z,10.57
2022-09-06T09:14:13.349Z,19.98
2022-09-06T09:17:06.130Z,24.75
2022-09-06T09:22:39.996Z,9.77
2022-09-06T09:25:26.700Z,7.45
2022-09-06T09:28:23.699Z,11.43
2022-09-06T09:31:14.360Z,13.07
2022-09-06T09:34:04.521Z,13.82
2022-09-06T09:40:33.552Z,13.10
2022-09-06T09:43:40.219Z,10.48
2022-09-06T09:46:33.012Z,8.50
2022-09-06T09:49:29.914Z,11.18
2022-09-06T09:52:25.907Z,8.65
2022-09-06T09:55:12.884Z,13.32
2022-09-06T09:57:59.282Z,20.45
2022-09-06T10:00:45.911Z,17.00
2022-09-06T10:03:33.144Z,11.75
2022-09-06T10:09:42.341Z,10.90
2022-09-06T10:12:36.208Z,13.93
2022-09-06T10:15:40.384Z,12.88
2022-09-06T10:18:33.347Z,20.27
2022-09-06T10:21:22.463Z,19.77
2022-09-06T10:27:20.160Z,30.92
2022-09-06T10:30:08.867Z,21.75
2022-09-06T10:33:12.217Z,17.85
2022-09-06T10:36:00.661Z,33.00
2022-09-06T10:38:54.294Z,27.73
2022-09-06T10:42:09.197Z,31.00
2022-09-06T10:45:12.176Z,27.05
2022-09-06T10:48:05.624Z,34.67
2022-09-06T10:51:03.255Z,18.30
2022-09-06T10:54:03.036Z,25.98
2022-09-06T10:57:09.330Z,40.15
2022-09-06T11:00:17.158Z,30.60
2022-09-06T11:06:32.667Z,25.30
2022-09-06T11:09:29.553Z,21.88
2022-09-06T11:12:24.116Z,32.22
2022-09-06T11:15:13.856Z,39.85
2022-09-06T11:18:15.358Z,41.67
2022-09-06T11:21:26.934Z,36.60
2022-09-06T11:24:15.957Z,44.47
2022-09-06T11:27:28.084Z,30.92
2022-09-06T11:30:18.694Z,20.50
2022-09-06T11:33:24.776Z,19.38
2022-09-06T11:36:38.238Z,34.33
2022-09-06T11:45:59.856Z,32.08
2022-09-06T11:49:10.981Z,30.55
2022-09-06T11:51:56.993Z,35.30
2022-09-06T11:54:47.189Z,29.88
2022-09-06T11:57:33.260Z,16.67
2022-09-06T12:00:23.906Z,22.20
2022-09-06T12:06:41.965Z,18.33
2022-09-06T12:09:45.926Z,16.25
2022-09-06T12:12:48.594Z,19.83
2022-09-06T12:15:53.647Z,33.28
2022-09-06T12:18:48.785Z,25.48
2022-09-06T12:21:34.808Z,16.75
2022-09-06T12:24:35.828Z,13.48
2022-09-06T12:27:34.984Z,19.88
2022-09-06T12:30:51.099Z,8.65
2022-09-06T12:33:38.863Z,10.95
2022-09-06T12:36:32.219Z,12.50
2022-09-06T12:39:18.132Z,17.15
2022-09-06T12:42:07.392Z,18.92
2022-09-06T12:44:55.668Z,12.70
2022-09-06T12:47:42.267Z,15.40
2022-09-06T12:50:31.610Z,15.82
2022-09-06T12:53:26.619Z,18.65
2022-09-06T12:56:13.003Z,17.35
2022-09-06T12:59:19.390Z,16.17
2022-09-06T13:02:15.916Z,17.13
2022-09-06T13:05:12.296Z,13.52
2022-09-06T13:08:03.205Z,16.60
2022-09-06T13:10:49.801Z,17.92
2022-09-06T13:13:35.974Z,23.73
2022-09-06T13:16:27.996Z,12.98
2022-09-06T13:19:19.168Z,17.55
2022-09-06T13:22:08.037Z,12.85
2022-09-06T13:24:56.510Z,16.13
2022-09-06T13:27:49.918Z,11.85
2022-09-06T13:30:49.645Z,10.77
2022-09-06T13:33:37.802Z,11.93
2022-09-06T13:36:27.905Z,18.85
2022-09-06T13:39:54.948Z,10.48
2022-09-06T13:42:40.722Z,12.00
2022-09-06T13:45:31.758Z,11.57
2022-09-06T13:48:28.682Z,9.68
2022-09-06T13:51:23.996Z,10.23
2022-09-06T13:54:12.893Z,9.82
2022-09-06T13:56:58.735Z,8.45
2022-09-06T13:59:45.286Z,14.45
2022-09-06T14:02:32.467Z,13.95
2022-09-06T14:05:18.381Z,9.80
2022-09-06T14:08:04.020Z,7.15
2022-09-06T14:10:51.746Z,7.78
2022-09-06T14:13:37.450Z,4.93
2022-09-06T14:16:23.380Z,9.18
2022-09-06T14:19:10.004Z,8.55
2022-09-06T14:21:55.888Z,6.32
2022-09-06T14:24:42.244Z,11.98
2022-09-06T14:27:28.509Z,12.25
2022-09-06T14:30:14.284Z,12.23
2022-09-06T14:33:00.156Z,7.10
2022-09-06T14:35:46.330Z,14.73
2022-09-06T14:38:31.916Z,14.27
2022-09-06T14:41:20.132Z,8.52
2022-09-06T14:44:05.884Z,6.97
2022-09-06T14:46:54.540Z,5.80
2022-09-06T14:49:40.916Z,7.90
2022-09-06T14:52:27.233Z,6.95
2022-09-06T14:55:13.051Z,10.73
2022-09-06T14:57:59.650Z,14.10
2022-09-06T15:00:46.643Z,6.72
2022-09-06T15:03:33.563Z,13.30
2022-09-06T15:06:21.573Z,8.13
2022-09-06T15:09:08.010Z,7.53
2022-09-06T15:11:54.412Z,7.00
2022-09-06T15:14:41.168Z,9.18
2022-09-06T15:17:27.282Z,9.70
2022-09-06T15:20:13.267Z,14.57
2022-09-06T15:23:21.746Z,7.15
2022-09-06T15:26:08.288Z,9.32
2022-09-06T15:28:54.204Z,8.55
2022-09-06T15:31:41.909Z,15.05
2022-09-06T15:34:27.933Z,6.90
2022-09-06T15:37:13.540Z,9.00
2022-09-06T15:39:59.880Z,11.93
2022-09-06T15:42:46.401Z,7.53
2022-09-06T15:45:45.645Z,13.77
2022-09-06T15:48:41.741Z,7.43
2022-09-06T15:51:27.795Z,13.55
2022-09-06T15:54:16.186Z,8.85
2022-09-06T15:57:03.857Z,7.60
2022-09-06T15:59:49.268Z,11.57
2022-09-06T16:02:35.321Z,11.18
2022-09-06T16:08:26.893Z,10.45
2022-09-06T16:11:15.037Z,6.65
2022-09-06T16:14:00.625Z,13.15
2022-09-06T16:16:46.591Z,9.23
2022-09-06T16:19:32.916Z,11.60
2022-09-06T16:22:18.834Z,11.82
2022-09-06T16:25:05.192Z,11.02
2022-09-06T16:27:51.433Z,8.55
2022-09-06T16:30:42.629Z,9.20
2022-09-06T16:33:29.524Z,7.70
2022-09-06T16:36:15.867Z,4.72
2022-09-06T16:39:02.130Z,7.53
2022-09-06T16:41:48.223Z,6.20
2022-09-06T16:44:34.275Z,5.05
2022-09-06T16:47:19.791Z,9.50
2022-09-06T16:50:06.185Z,5.07
2022-09-06T16:52:52.333Z,7.15
2022-09-06T16:55:39.344Z,6.20
2022-09-06T16:58:25.648Z,5.28
2022-09-06T17:01:12.003Z,4.10
2022-09-06T17:03:57.957Z,7.38
2022-09-06T17:06:46.965Z,5.40
2022-09-06T17:09:35.239Z,13.32
2022-09-06T17:12:21.351Z,9.95
2022-09-06T17:15:07.612Z,8.35
2022-09-06T17:17:52.881Z,10.68
2022-09-06T17:20:40.424Z,10.38
2022-09-06T17:23:26.942Z,8.45
2022-09-06T17:26:13.500Z,11.68
2022-09-06T17:28:59.596Z,12.25
2022-09-06T17:31:45.910Z,6.82
2022-09-06T17:34:31.773Z,8.63
2022-09-06T17:37:17.834Z,11.10
2022-09-06T17:40:05.426Z,7.80
2022-09-06T17:42:52.299Z,13.00
2022-09-06T17:45:40.655Z,11.35
2022-09-06T17:48:28.318Z,7.88
2022-09-06T17:51:15.474Z,10.57
2022-09-06T17:54:01.794Z,16.02
2022-09-06T17:56:49.024Z,8.55
2022-09-06T17:59:35.962Z,7.85
2022-09-06T18:02:22.013Z,11.40
2022-09-06T18:05:10.036Z,7.07
2022-09-06T18:07:56.278Z,8.80
2022-09-06T18:10:43.491Z,8.02
2022-09-06T18:13:29.311Z,10.52
2022-09-06T18:16:15.254Z,9.32
2022-09-06T18:19:04.660Z,12.20
2022-09-06T18:21:51.505Z,12.20
2022-09-06T18:24:37.447Z,8.88
2022-09-06T18:27:23.679Z,13.52
2022-09-06T18:30:14.616Z,15.07
2022-09-06T18:33:00.645Z,16.58
2022-09-06T18:35:50.137Z,12.75
2022-09-06T18:38:37.602Z,14.80
2022-09-06T18:41:41.873Z,15.52
2022-09-06T18:44:33.649Z,8.95
2022-09-06T18:47:20.057Z,7.43
2022-09-06T18:50:08.012Z,7.10
2022-09-06T18:52:54.165Z,10.95
2022-09-06T18:55:43.873Z,9.55
2022-09-06T18:58:29.996Z,16.05
2022-09-06T19:01:17.973Z,8.98
2022-09-06T19:04:05.172Z,23.92
2022-09-06T19:06:50.842Z,15.55
2022-09-06T19:09:37.212Z,9.27
2022-09-06T19:12:24.041Z,9.27
2022-09-06T19:15:10.783Z,18.60
2022-09-06T19:17:57.068Z,11.70
2022-09-06T19:20:42.757Z,10.48
2022-09-06T19:23:31.852Z,10.10
2022-09-06T19:26:20.428Z,12.88
2022-09-06T19:29:09.014Z,12.55
2022-09-06T19:31:55.494Z,9.70
2022-09-06T19:34:41.830Z,8.40
2022-09-06T19:37:28.324Z,9.73
2022-09-06T19:40:14.252Z,11.27
2022-09-06T19:43:00.130Z,5.80
2022-09-06T19:45:46.429Z,10.95
2022-09-06T19:48:33.301Z,4.80
2022-09-06T19:51:19.983Z,8.63
2022-09-06T19:54:06.299Z,9.10
2022-09-06T19:56:52.735Z,9.40
2022-09-06T19:59:39.365Z,9.73
2022-09-06T20:02:25.705Z,6.55
2022-09-06T20:05:11.660Z,10.25
2022-09-06T20:07:57.850Z,5.10
2022-09-06T20:10:53.076Z,7.65
2022-09-06T20:13:40.408Z,8.45
2022-09-06T20:16:26.735Z,13.00
2022-09-06T20:19:14.867Z,6.20
2022-09-06T20:22:00.511Z,21.25
2022-09-06T20:24:46.694Z,5.43
2022-09-06T20:27:32.874Z,9.35
2022-09-06T20:30:18.914Z,11.55
2022-09-06T20:33:06.254Z,6.93
2022-09-06T20:36:02.732Z,10.32
2022-09-06T20:38:48.902Z,7.75
2022-09-06T20:41:34.771Z,12.38
2022-09-06T20:44:21.213Z,4.75
2022-09-06T20:47:07.018Z,19.63
2022-09-06T20:49:54.411Z,11.25
2022-09-06T20:52:41.088Z,8.35
2022-09-06T20:55:26.702Z,11.20
2022-09-06T20:58:12.719Z,6.45
2022-09-06T21:00:59.868Z,7.03
2022-09-06T21:03:46.295Z,10.75
2022-09-06T21:06:36.226Z,9.65
2022-09-06T21:09:22.141Z,11.98
2022-09-06T21:12:08.338Z,13.23
2022-09-06T21:14:54.983Z,9.48
2022-09-06T21:17:41.114Z,8.70
2022-09-06T21:20:27.117Z,10.15
2022-09-06T21:23:15.586Z,10.30
2022-09-06T21:26:05.084Z,6.65
2022-09-06T21:28:51.809Z,13.52
2022-09-06T21:31:38.178Z,14.43
2022-09-06T21:34:24.244Z,12.80
2022-09-06T21:37:09.904Z,18.42
2022-09-06T21:39:55.550Z,15.70
2022-09-06T21:42:41.531Z,12.10
2022-09-06T21:45:27.435Z,17.70
2022-09-06T21:48:18.238Z,13.77
2022-09-06T21:51:04.997Z,10.13
2022-09-06T21:53:51.979Z,8.52
2022-09-06T21:56:39.422Z,10.98
2022-09-06T21:59:24.937Z,13.90
2022-09-06T22:02:10.762Z,12.82
2022-09-06T22:04:57.073Z,24.90
2022-09-06T22:07:42.850Z,8.40
2022-09-06T22:10:28.672Z,9.60
2022-09-06T22:13:15.798Z,7.70
2022-09-06T22:16:07.538Z,15.57
2022-09-06T22:18:54.091Z,7.55
2022-09-06T22:21:40.281Z,13.45
2022-09-06T22:24:26.397Z,8.50
2022-09-06T22:27:12.389Z,8.00
2022-09-06T22:29:58.680Z,12.10
2022-09-06T22:32:44.235Z,7.93
2022-09-06T22:35:30.419Z,19.17
2022-09-06T22:38:15.732Z,4.28
2022-09-06T22:41:02.153Z,13.23
2022-09-06T22:43:48.141Z,8.85
2022-09-06T22:46:34.292Z,13.85
2022-09-06T22:49:20.185Z,10.20
2022-09-06T22:52:05.662Z,9.48
2022-09-06T22:54:51.618Z,9.68
2022-09-06T22:57:37.903Z,8.32
2022-09-06T23:00:23.489Z,7.72
2022-09-06T23:03:09.418Z,6.20
2022-09-06T23:06:00.761Z,5.18
2022-09-06T23:08:46.433Z,9.55
2022-09-06T23:11:32.774Z,8.73
2022-09-06T23:14:18.669Z,7.78
2022-09-06T23:17:05.067Z,6.28
2022-09-06T23:19:50.756Z,6.65
2022-09-06T23:22:37.520Z,3.75
2022-09-06T23:25:23.395Z,8.60
2022-09-06T23:28:09.272Z,9.13
2022-09-06T23:30:54.795Z,9.77
2022-09-06T23:33:41.863Z,9.48
2022-09-06T23:36:28.148Z,3.92
2022-09-06T23:39:13.957Z,5.68
2022-09-06T23:42:02.083Z,8.13
2022-09-06T23:44:48.196Z,8.45
2022-09-06T23:47:35.078Z,4.07
2022-09-06T23:50:21.048Z,7.22
2022-09-06T23:53:06.620Z,4.78
2022-09-06T23:55:52.457Z,5.40
2022-09-06T23:58:39.177Z,6.20
